createdAt,value
2023-03-25T00:00:03.123Z,0
2023-03-25T00:05:03.425Z,0
2023-03-25T00:10:03.149Z,0
2023-03-25T00:15:02.959Z,0
2023-03-25T00:20:02.733Z,0
2023-03-25T00:25:02.589Z,0
2023-03-25T00:30:03.392Z,0
2023-03-25T00:35:03.186Z,0
2023-03-25T00:40:03.215Z,0
2023-03-25T00:45:02.712Z,0
2023-03-25T00:50:03.393Z,0
2023-03-25T00:55:03.997Z,0
2023-03-25T01:00:02.954Z,0
2023-03-25T01:05:02.584Z,0
2023-03-25T01:10:03.351Z,0
2023-03-25T01:15:03.070Z,0
2023-03-25T01:20:03.095Z,0
2023-03-25T01:25:02.941Z,0
2023-03-25T01:30:02.563Z,0
2023-03-25T01:35:02.437Z,0
2023-03-25T01:40:03.136Z,0
2023-03-25T01:45:02.954Z,0
2023-03-25T01:50:02.590Z,0
2023-03-25T01:55:03.689Z,0
2023-03-25T02:00:03.174Z,0
2023-03-25T02:05:02.928Z,0
2023-03-25T02:10:03.012Z,0
2023-03-25T02:15:03.241Z,0
2023-03-25T02:20:02.704Z,0
2023-03-25T02:25:02.437Z,0
2023-03-25T02:30:03.248Z,0
2023-03-25T02:35:02.914Z,0
2023-03-25T02:40:02.704Z,0
2023-03-25T02:45:03.407Z,0
2023-03-25T02:50:03.155Z,0
2023-03-25T02:55:03.895Z,0
2023-03-25T03:00:03.338Z,0
2023-03-25T03:05:02.993Z,0
2023-03-25T03:10:03.170Z,0
2023-03-25T03:15:03.239Z,0
2023-03-25T03:20:02.960Z,0
2023-03-25T03:25:02.977Z,0
2023-03-25T03:30:02.832Z,0
2023-03-25T03:35:03.352Z,0
2023-03-25T03:40:03.080Z,0
2023-03-25T03:45:03.060Z,0
2023-03-25T03:50:02.720Z,0
2023-03-25T03:55:03.552Z,0
2023-03-25T04:00:03.272Z,0
2023-03-25T04:05:03.328Z,0
2023-03-25T04:10:03.232Z,0
2023-03-25T04:15:02.855Z,0
2023-03-25T04:20:02.589Z,0
2023-03-25T04:25:03.283Z,0.23
2023-03-25T04:30:03.109Z,0.91
2023-03-25T04:35:02.708Z,2.6
2023-03-25T04:40:02.434Z,7.02
2023-03-25T04:45:03.346Z,6.67
2023-03-25T04:50:03.126Z,16.67
2023-03-25T04:55:03.328Z,31.67
2023-03-25T05:00:02.550Z,55
2023-03-25T05:05:03.120Z,101.67
2023-03-25T05:10:03.102Z,163.33
2023-03-25T05:15:02.904Z,228.33
2023-03-25T05:20:02.631Z,291.67
2023-03-25T05:25:02.526Z,315
2023-03-25T05:30:03.167Z,395
2023-03-25T05:35:02.846Z,273.33
2023-03-25T05:40:02.501Z,291.67
2023-03-25T05:45:03.214Z,288.33
2023-03-25T05:50:02.863Z,391.67
2023-03-25T05:55:03.349Z,580
2023-03-25T06:00:03.393Z,773.33
2023-03-25T06:05:03.568Z,921.67
2023-03-25T06:10:03.207Z,1213.33
2023-03-25T06:15:03.252Z,1618.33
2023-03-25T06:20:03.208Z,2168.33
2023-03-25T06:25:04.260Z,4135
2023-03-25T06:30:02.658Z,3011.67
2023-03-25T06:35:03.332Z,2813.33
2023-03-25T06:40:03.245Z,3393.33
2023-03-25T06:45:03.096Z,3140
2023-03-25T06:50:03.337Z,7801.67
2023-03-25T06:55:03.947Z,6101.67
2023-03-25T07:00:03.064Z,8160
2023-03-25T07:05:02.840Z,4085
2023-03-25T07:10:02.878Z,4996.67
2023-03-25T07:15:02.682Z,3026.67
2023-03-25T07:20:02.548Z,3113.33
2023-03-25T07:25:03.325Z,9438.33
2023-03-25T07:30:03.115Z,4515
2023-03-25T07:35:02.861Z,4458.33
2023-03-25T07:40:02.674Z,6395
2023-03-25T07:45:03.392Z,13011.67
2023-03-25T07:50:02.394Z,12125
2023-03-25T07:55:03.517Z,28916.67
2023-03-25T08:00:02.890Z,30536.67
2023-03-25T08:05:05.352Z,7655
2023-03-25T08:10:03.031Z,7321.67
2023-03-25T08:15:02.810Z,7215
2023-03-25T08:20:02.722Z,12951.67
2023-03-25T08:25:02.550Z,8131.67
2023-03-25T08:30:02.747Z,6243.33
2023-03-25T08:35:02.702Z,9023.33
2023-03-25T08:40:02.414Z,28843.33
2023-03-25T08:45:03.327Z,8500
2023-03-25T08:50:03.066Z,7565
2023-03-25T08:55:03.482Z,12881.67
2023-03-25T09:00:02.526Z,27403.33
2023-03-25T09:05:02.535Z,12798.33
2023-03-25T09:10:02.371Z,9821.67
2023-03-25T09:15:02.433Z,13385
2023-03-25T09:20:03.264Z,9386.67
2023-03-25T09:25:03.150Z,39230
2023-03-25T09:30:03.272Z,12320
2023-03-25T09:35:03.002Z,8653.33
2023-03-25T09:40:03.091Z,28193.33
2023-03-25T09:45:12.105Z,43956.67
2023-03-25T09:50:02.497Z,47516.67
2023-03-25T09:55:03.705Z,39766.67
2023-03-25T10:00:02.879Z,8201.67
2023-03-25T10:05:02.677Z,49510
2023-03-25T10:10:02.398Z,6351.67
2023-03-25T10:15:03.155Z,49376.67
2023-03-25T10:20:02.958Z,7566.67
2023-03-25T10:25:02.695Z,9098.33
2023-03-25T10:30:02.511Z,9428.33
2023-03-25T10:35:02.369Z,9753.33
2023-03-25T10:40:03.089Z,30430
2023-03-25T10:45:03.329Z,13526.67
2023-03-25T10:50:03.048Z,13311.67
2023-03-25T10:55:03.336Z,44330
2023-03-25T11:00:02.574Z,9775
2023-03-25T11:05:02.765Z,7216.67
2023-03-25T11:10:02.601Z,12621.67
2023-03-25T11:15:03.375Z,7458.33
2023-03-25T11:20:03.037Z,6693.33
2023-03-25T11:25:02.712Z,38843.33
2023-03-25T11:30:02.448Z,46760
2023-03-25T11:35:03.303Z,58143.28
2023-03-25T11:40:03.090Z,75662.81
2023-03-25T11:45:02.876Z,10953.33
2023-03-25T11:50:02.720Z,7628.33
2023-03-25T11:55:02.746Z,64241.88
2023-03-25T12:00:03.315Z,33970
2023-03-25T12:05:03.023Z,10026.67
2023-03-25T12:10:03.390Z,49560
2023-03-25T12:15:03.033Z,31980
2023-03-25T12:20:02.970Z,40750
2023-03-25T12:25:02.824Z,44763.33
2023-03-25T12:30:02.655Z,12183.33
2023-03-25T12:35:03.324Z,43663.33
2023-03-25T12:40:04.527Z,30610
2023-03-25T12:45:02.905Z,10266.67
2023-03-25T12:50:02.646Z,13466.67
2023-03-25T12:55:04.049Z,10105
2023-03-25T13:00:02.937Z,11063.33
2023-03-25T13:05:02.616Z,13388.33
2023-03-25T13:10:02.397Z,37093.33
2023-03-25T13:15:02.739Z,8951.67
2023-03-25T13:20:03.242Z,41190
2023-03-25T13:25:02.937Z,7785
2023-03-25T13:30:02.756Z,9413.33
2023-03-25T13:35:02.492Z,6630
2023-03-25T13:40:03.236Z,3570
2023-03-25T13:45:03.061Z,898.33
2023-03-25T13:50:02.836Z,1761.67
2023-03-25T13:55:03.500Z,1413.33
2023-03-25T14:00:02.564Z,5110
2023-03-25T14:05:03.323Z,9318.33
2023-03-25T14:10:03.075Z,34193.33
2023-03-25T14:15:02.878Z,34020
2023-03-25T14:20:02.884Z,29156.67
2023-03-25T14:25:02.620Z,8808.33
2023-03-25T14:30:03.442Z,4590
2023-03-25T14:35:03.054Z,4745
2023-03-25T14:40:03.193Z,5176.67
2023-03-25T14:45:03.094Z,5663.33
2023-03-25T14:50:02.754Z,11915
2023-03-25T14:55:03.544Z,7891.67
2023-03-25T15:00:03.311Z,8406.67
2023-03-25T15:05:03.005Z,6151.67
2023-03-25T15:10:02.899Z,6205
2023-03-25T15:15:02.984Z,9960
2023-03-25T15:20:02.670Z,8253.33
2023-03-25T15:25:02.394Z,4990
2023-03-25T15:30:03.074Z,4566.67
2023-03-25T15:35:02.970Z,2798.33
2023-03-25T15:40:02.651Z,2230
2023-03-25T15:45:03.208Z,2425
2023-03-25T15:50:02.911Z,2125
2023-03-25T15:55:03.523Z,1891.67
2023-03-25T16:00:03.011Z,1803.33
2023-03-25T16:05:02.750Z,1556.67
2023-03-25T16:10:02.712Z,706.67
2023-03-25T16:15:03.289Z,915
2023-03-25T16:20:03.116Z,1283.33
2023-03-25T16:25:02.843Z,715
2023-03-25T16:30:02.586Z,3085
2023-03-25T16:35:03.009Z,1496.67
2023-03-25T16:40:02.923Z,875
2023-03-25T16:45:02.807Z,651.67
2023-03-25T16:50:02.656Z,488.33
2023-03-25T16:55:03.585Z,408.33
2023-03-25T17:00:03.339Z,208.33
2023-03-25T17:05:02.911Z,411.67
2023-03-25T17:10:03.067Z,413.33
2023-03-25T17:15:02.958Z,326.67
2023-03-25T17:20:03.211Z,93.33
2023-03-25T17:25:02.422Z,30
2023-03-25T17:30:02.757Z,68.33
2023-03-25T17:35:03.375Z,60
2023-03-25T17:40:03.252Z,48.33
2023-03-25T17:45:02.920Z,28.33
2023-03-25T17:50:02.844Z,10
2023-03-25T17:55:03.616Z,4.75
2023-03-25T18:00:02.726Z,1.81
2023-03-25T18:05:02.392Z,0.57
2023-03-25T18:10:02.475Z,0
2023-03-25T18:15:03.276Z,0
2023-03-25T18:20:02.379Z,0
2023-03-25T18:25:03.289Z,0
2023-03-25T18:30:02.872Z,0
2023-03-25T18:35:02.904Z,0
2023-03-25T18:40:02.552Z,0
2023-03-25T18:45:03.399Z,0
2023-03-25T18:50:02.381Z,0
2023-03-25T18:55:03.865Z,0
2023-03-25T19:00:03.090Z,0
2023-03-25T19:05:02.751Z,0
2023-03-25T19:10:02.452Z,0
2023-03-25T19:15:03.378Z,0
2023-03-25T19:20:03.335Z,0
2023-03-25T19:25:03.443Z,0
2023-03-25T19:30:03.044Z,0
2023-03-25T19:35:03.315Z,0
2023-03-25T19:40:03.151Z,0
2023-03-25T19:45:02.988Z,0
2023-03-25T19:50:02.719Z,0
2023-03-25T19:55:04.081Z,0
2023-03-25T20:00:03.115Z,0
2023-03-25T20:05:02.377Z,0
2023-03-25T20:10:20.252Z,0
2023-03-25T20:15:03.066Z,0
2023-03-25T20:20:02.539Z,0
2023-03-25T20:25:02.621Z,0
2023-03-25T20:30:02.545Z,0
2023-03-25T20:35:03.212Z,0
2023-03-25T20:40:02.970Z,0
2023-03-25T20:45:03.082Z,0
2023-03-25T20:50:02.742Z,0
2023-03-25T20:55:03.331Z,0
2023-03-25T21:00:02.575Z,0
2023-03-25T21:05:04.053Z,0
2023-03-25T21:10:03.062Z,0
2023-03-25T21:15:02.830Z,0
2023-03-25T21:20:02.861Z,0
2023-03-25T21:25:02.571Z,0
2023-03-25T21:30:03.309Z,0
2023-03-25T21:35:02.977Z,0
2023-03-25T21:40:02.712Z,0
2023-03-25T21:45:02.454Z,0
2023-03-25T21:50:02.499Z,0
2023-03-25T21:55:04.118Z,0
2023-03-25T22:00:03.261Z,0
2023-03-25T22:05:02.864Z,0
2023-03-25T22:10:02.564Z,0
2023-03-25T22:15:02.446Z,0
2023-03-25T22:20:03.208Z,0
2023-03-25T22:25:02.832Z,0
2023-03-25T22:30:02.728Z,0
2023-03-25T22:35:03.528Z,0
2023-03-25T22:40:03.079Z,0
2023-03-25T22:45:02.831Z,0
2023-03-25T22:50:02.580Z,0
2023-03-25T22:55:04.337Z,0
2023-03-25T23:00:03.001Z,0
2023-03-25T23:05:03.000Z,0
2023-03-25T23:10:02.858Z,0
2023-03-25T23:15:02.976Z,0
2023-03-25T23:20:03.192Z,0
2023-03-25T23:25:02.678Z,0
2023-03-25T23:30:03.473Z,0
2023-03-25T23:35:03.191Z,0
2023-03-25T23:40:03.015Z,0
2023-03-25T23:45:02.689Z,0
2023-03-25T23:50:03.360Z,0
2023-03-25T23:55:03.955Z,0
